P2NTZ KCOS-
Flight info
| Callsign | P2NTZ |
|---|---|
| Flight time | N/A |
| Altitude | VFR |
| Route | VFR SOUTH |
| Aircraft | K100/L-DOV/C |
Departure
| Time | 2026-04-24 20:48 |
|---|---|
| Airport | City of Colorado Springs Municipal Airport (KCOS) |
Arrival
| Time | N/A |
|---|---|
| Airport | - |
| Time | Latitude | Longitude | Altitude | Speed | Heading |
|---|---|---|---|---|---|
| 2026-04-24 20:40 | 38.82169 | -104.70916 | 6190 ft | 0 kts | 15° |
| 2026-04-24 20:43 | 38.82169 | -104.70915 | 6190 ft | 1 kts | 14° |
| 2026-04-24 20:43 | 38.82165 | -104.70937 | 6190 ft | 8 kts | 236° |
| 2026-04-24 20:43 | 38.82169 | -104.70996 | 6190 ft | 11 kts | 316° |
| 2026-04-24 20:44 | 38.82250 | -104.71105 | 6190 ft | 21 kts | 315° |
| 2026-04-24 20:44 | 38.82301 | -104.71171 | 6190 ft | 8 kts | 312° |
| 2026-04-24 20:44 | 38.82272 | -104.71224 | 6190 ft | 8 kts | 277° |
| 2026-04-24 20:44 | 38.82314 | -104.71280 | 6190 ft | 13 kts | 313° |
| 2026-04-24 20:45 | 38.82373 | -104.71355 | 6190 ft | 15 kts | 315° |
| 2026-04-24 20:45 | 38.82400 | -104.71426 | 6191 ft | 0 kts | 275° |
| 2026-04-24 20:45 | 38.82400 | -104.71428 | 6191 ft | 0 kts | 272° |
| 2026-04-24 20:46 | 38.82398 | -104.71491 | 6192 ft | 18 kts | 265° |
| 2026-04-24 20:46 | 38.82292 | -104.71594 | 6192 ft | 24 kts | 186° |
| 2026-04-24 20:47 | 38.82154 | -104.71594 | 6191 ft | 28 kts | 179° |
| 2026-04-24 20:47 | 38.81666 | -104.71591 | 6189 ft | 107 kts | 180° |
| 2026-04-24 20:47 | 38.80772 | -104.71566 | 6290 ft | 143 kts | 179° |
| 2026-04-24 20:47 | 38.79722 | -104.71522 | 6476 ft | 158 kts | 178° |
| 2026-04-24 20:48 | 38.78601 | -104.71446 | 6670 ft | 164 kts | 177° |
| 2026-04-24 20:48 | 38.77452 | -104.71351 | 6881 ft | 166 kts | 177° |
| 2026-04-24 20:48 | 38.76297 | -104.71242 | 7107 ft | 167 kts | 176° |
| 2026-04-24 20:48 | 38.75144 | -104.71118 | 7327 ft | 167 kts | 176° |
| 2026-04-24 20:49 | 38.73983 | -104.70980 | 7541 ft | 167 kts | 175° |
| 2026-04-24 20:49 | 38.72827 | -104.70828 | 7771 ft | 167 kts | 175° |
| 2026-04-24 20:49 | 38.71673 | -104.70663 | 7997 ft | 167 kts | 174° |
| 2026-04-24 20:49 | 38.70518 | -104.70485 | 8215 ft | 167 kts | 174° |
| 2026-04-24 20:50 | 38.69381 | -104.70294 | 8431 ft | 167 kts | 173° |
| 2026-04-24 20:50 | 38.68231 | -104.70087 | 8646 ft | 167 kts | 173° |
| 2026-04-24 20:50 | 38.67081 | -104.69863 | 8856 ft | 167 kts | 172° |
| 2026-04-24 20:50 | 38.65923 | -104.69614 | 8943 ft | 175 kts | 171° |
| 2026-04-24 20:51 | 38.64687 | -104.69321 | 8859 ft | 184 kts | 171° |
| 2026-04-24 20:51 | 38.63425 | -104.69029 | 8892 ft | 184 kts | 171° |
| 2026-04-24 20:51 | 38.62163 | -104.68739 | 8901 ft | 182 kts | 171° |
| 2026-04-24 20:51 | 38.60939 | -104.68458 | 8900 ft | 176 kts | 171° |
| 2026-04-24 20:52 | 38.59743 | -104.68178 | 8898 ft | 174 kts | 171° |
| 2026-04-24 20:52 | 38.58561 | -104.67895 | 8892 ft | 172 kts | 170° |
| 2026-04-24 20:52 | 38.57382 | -104.67604 | 8897 ft | 172 kts | 170° |
| 2026-04-24 20:52 | 38.56204 | -104.67304 | 8898 ft | 172 kts | 169° |
| 2026-04-24 20:53 | 38.55030 | -104.66996 | 8892 ft | 172 kts | 169° |
| 2026-04-24 20:53 | 38.53872 | -104.66682 | 8897 ft | 172 kts | 169° |
| 2026-04-24 20:53 | 38.52703 | -104.66356 | 8897 ft | 172 kts | 168° |
| 2026-04-24 20:53 | 38.51537 | -104.66020 | 8897 ft | 172 kts | 168° |
| 2026-04-24 20:54 | 38.50370 | -104.65675 | 8897 ft | 172 kts | 168° |
| 2026-04-24 20:54 | 38.49201 | -104.65378 | 8890 ft | 170 kts | 181° |
| 2026-04-24 20:54 | 38.48287 | -104.65644 | 8886 ft | 168 kts | 201° |
| 2026-04-24 20:54 | 38.48282 | -104.65646 | 8889 ft | 168 kts | 201° |
| 2026-04-24 20:55 | 38.47198 | -104.66178 | 8893 ft | 165 kts | 202° |
| 2026-04-24 20:55 | 38.46130 | -104.66699 | 8889 ft | 164 kts | 202° |
| 2026-04-24 20:55 | 38.45070 | -104.67218 | 8892 ft | 163 kts | 202° |
| 2026-04-24 20:55 | 38.44015 | -104.67734 | 8892 ft | 162 kts | 202° |
| 2026-04-24 20:56 | 38.42970 | -104.68245 | 8890 ft | 160 kts | 202° |
| 2026-04-24 20:56 | 38.41932 | -104.68757 | 8859 ft | 161 kts | 203° |
| 2026-04-24 20:56 | 38.40912 | -104.69381 | 8688 ft | 165 kts | 211° |
| 2026-04-24 20:56 | 38.40006 | -104.70309 | 7805 ft | 168 kts | 228° |
| 2026-04-24 20:57 | 38.39277 | -104.71445 | 6924 ft | 165 kts | 234° |
| 2026-04-24 20:57 | 38.38648 | -104.72557 | 6294 ft | 126 kts | 236° |
| 2026-04-24 20:57 | 38.38271 | -104.73322 | 5851 ft | 85 kts | 241° |
| 2026-04-24 20:57 | 38.38006 | -104.73904 | 5529 ft | 68 kts | 241° |
| 2026-04-24 20:58 | 38.37688 | -104.74260 | 5363 ft | 57 kts | 187° |
| 2026-04-24 20:58 | 38.37352 | -104.73988 | 5187 ft | 80 kts | 85° |
| 2026-04-24 20:58 | 38.37353 | -104.73566 | 5167 ft | 8 kts | 77° |
| 2026-04-24 20:58 | 38.37354 | -104.73563 | 5165 ft | 0 kts | 49° |